createdAt,value
2022-08-19T00:01:32.874Z,10.88
2022-08-19T00:04:14.155Z,11.18
2022-08-19T00:06:49.670Z,11.07
2022-08-19T00:09:24.635Z,11.50
2022-08-19T00:12:01.026Z,9.95
2022-08-19T00:14:35.800Z,10.25
2022-08-19T00:17:10.954Z,9.93
2022-08-19T00:19:44.981Z,9.15
2022-08-19T00:22:27.072Z,9.60
2022-08-19T00:25:00.340Z,9.82
2022-08-19T00:27:37.549Z,9.43
2022-08-19T00:30:12.514Z,8.90
2022-08-19T00:32:47.046Z,9.35
2022-08-19T00:35:20.979Z,8.90
2022-08-19T00:37:55.221Z,8.57
2022-08-19T00:40:31.233Z,8.93
2022-08-19T00:43:12.215Z,8.02
2022-08-19T00:45:46.454Z,8.95
2022-08-19T00:48:21.340Z,8.35
2022-08-19T00:50:56.383Z,8.68
2022-08-19T00:53:33.231Z,8.30
2022-08-19T00:56:09.265Z,8.38
2022-08-19T00:58:44.837Z,8.32
2022-08-19T01:01:18.584Z,8.35
2022-08-19T01:03:58.014Z,8.20
2022-08-19T01:06:33.650Z,8.45
2022-08-19T01:09:07.712Z,9.10
2022-08-19T01:11:48.857Z,8.65
2022-08-19T01:14:25.514Z,8.40
2022-08-19T01:17:00.463Z,8.50
2022-08-19T01:19:44.356Z,8.38
2022-08-19T01:22:32.891Z,8.82
2022-08-19T01:25:09.971Z,8.63
2022-08-19T01:27:53.779Z,8.30
2022-08-19T01:30:30.070Z,8.40
2022-08-19T01:33:04.703Z,8.50
2022-08-19T01:35:39.876Z,8.68
2022-08-19T01:38:16.012Z,8.98
2022-08-19T01:40:51.153Z,8.18
2022-08-19T01:43:28.190Z,8.70
2022-08-19T01:46:12.956Z,7.82
2022-08-19T01:48:48.197Z,7.68
2022-08-19T01:51:21.962Z,7.75
2022-08-19T01:53:56.191Z,7.63
2022-08-19T01:56:32.163Z,7.63
2022-08-19T01:59:08.923Z,8.00
2022-08-19T02:01:43.034Z,7.55
2022-08-19T02:04:16.878Z,7.65
2022-08-19T02:06:50.430Z,7.13
2022-08-19T02:09:24.263Z,7.28
2022-08-19T02:11:59.647Z,7.32
2022-08-19T02:14:39.486Z,7.35
2022-08-19T02:17:13.762Z,7.63
2022-08-19T02:19:47.326Z,7.25
2022-08-19T02:22:21.459Z,6.45
2022-08-19T02:24:55.568Z,6.80
2022-08-19T02:27:31.276Z,6.60
2022-08-19T02:30:08.400Z,6.68
2022-08-19T02:32:48.049Z,6.55
2022-08-19T02:35:21.957Z,6.45
2022-08-19T02:38:11.534Z,6.78
2022-08-19T02:40:46.811Z,7.05
2022-08-19T02:43:23.404Z,6.47
2022-08-19T02:45:58.048Z,6.63
2022-08-19T02:48:31.394Z,6.70
2022-08-19T02:51:06.461Z,7.25
2022-08-19T02:53:39.752Z,6.97
2022-08-19T02:56:14.088Z,6.63
2022-08-19T02:58:50.345Z,7.03
2022-08-19T03:01:30.011Z,7.55
2022-08-19T03:04:05.829Z,6.95
2022-08-19T03:06:42.836Z,6.82
2022-08-19T03:09:17.535Z,7.22
2022-08-19T03:11:52.821Z,7.10
2022-08-19T03:14:29.159Z,6.60
2022-08-19T03:17:02.845Z,6.93
2022-08-19T03:19:37.596Z,6.85
2022-08-19T03:22:11.880Z,7.30
2022-08-19T03:24:45.669Z,7.50
2022-08-19T03:27:20.397Z,7.50
2022-08-19T03:29:55.789Z,7.90
2022-08-19T03:32:33.029Z,7.15
2022-08-19T03:35:07.435Z,7.00
2022-08-19T03:37:41.510Z,7.15
2022-08-19T03:40:16.611Z,7.50
2022-08-19T03:42:50.710Z,7.32
2022-08-19T03:45:26.173Z,7.68
2022-08-19T03:48:02.324Z,7.63
2022-08-19T03:50:35.857Z,7.65
2022-08-19T03:53:11.334Z,7.63
2022-08-19T03:55:46.928Z,7.10
2022-08-19T03:58:20.153Z,8.75
2022-08-19T04:00:56.326Z,7.90
2022-08-19T04:03:30.587Z,7.60
2022-08-19T04:06:04.258Z,7.88
2022-08-19T04:08:37.168Z,7.43
2022-08-19T04:11:15.105Z,7.50
2022-08-19T04:13:48.046Z,8.52
2022-08-19T04:16:28.708Z,8.23
2022-08-19T04:19:11.631Z,8.10
2022-08-19T04:21:48.071Z,7.90
2022-08-19T04:24:22.743Z,8.25
2022-08-19T04:26:56.903Z,8.20
2022-08-19T04:29:31.158Z,8.82
2022-08-19T04:32:09.077Z,8.60
2022-08-19T04:35:01.436Z,8.55
2022-08-19T04:37:40.739Z,8.82
2022-08-19T04:40:31.136Z,7.93
2022-08-19T04:43:05.512Z,8.00
2022-08-19T04:45:43.840Z,8.30
2022-08-19T04:48:32.168Z,8.48
2022-08-19T04:51:17.747Z,8.57
2022-08-19T04:53:51.275Z,8.02
2022-08-19T04:56:28.691Z,8.20
2022-08-19T04:59:05.805Z,8.40
2022-08-19T05:01:39.894Z,8.35
2022-08-19T05:04:15.925Z,8.45
2022-08-19T05:07:00.092Z,8.48
2022-08-19T05:09:55.608Z,8.88
2022-08-19T05:12:30.017Z,8.75
2022-08-19T05:15:04.777Z,8.40
2022-08-19T05:18:01.441Z,8.18
2022-08-19T05:20:58.638Z,8.18
2022-08-19T05:23:32.508Z,8.25
2022-08-19T05:26:06.373Z,8.55
2022-08-19T05:28:40.214Z,8.70
2022-08-19T05:31:23.658Z,7.85
2022-08-19T05:33:58.166Z,8.38
2022-08-19T05:36:38.835Z,8.15
2022-08-19T05:39:38.728Z,8.20
2022-08-19T05:42:14.302Z,7.93
2022-08-19T05:44:52.003Z,7.40
2022-08-19T05:47:30.694Z,7.95
2022-08-19T05:50:05.299Z,7.90
2022-08-19T05:52:43.740Z,7.90
2022-08-19T05:55:25.018Z,8.40
2022-08-19T05:57:59.727Z,8.30
2022-08-19T06:00:34.455Z,8.00
2022-08-19T06:03:11.712Z,8.20
2022-08-19T06:05:51.665Z,8.00
2022-08-19T06:08:34.243Z,8.20
2022-08-19T06:11:24.098Z,8.10
2022-08-19T06:14:00.442Z,8.00
2022-08-19T06:16:37.700Z,8.77
2022-08-19T06:19:13.372Z,7.82
2022-08-19T06:21:48.887Z,7.80
2022-08-19T06:24:26.401Z,8.18
2022-08-19T06:27:04.082Z,7.50
2022-08-19T06:29:41.405Z,7.65
2022-08-19T06:32:15.492Z,8.15
2022-08-19T06:34:49.420Z,8.00
2022-08-19T06:37:23.741Z,7.60
2022-08-19T06:40:02.440Z,7.72
2022-08-19T06:42:50.971Z,8.18
2022-08-19T06:45:35.498Z,7.85
2022-08-19T06:48:09.879Z,8.40
2022-08-19T06:50:47.736Z,7.93
2022-08-19T06:53:22.428Z,8.05
2022-08-19T06:56:03.728Z,8.18
2022-08-19T06:58:36.983Z,8.02
2022-08-19T07:01:14.029Z,8.48
2022-08-19T07:03:48.639Z,8.23
2022-08-19T07:09:19.556Z,8.48
2022-08-19T07:11:59.835Z,8.68
2022-08-19T07:14:33.308Z,8.05
2022-08-19T07:17:06.540Z,8.55
2022-08-19T07:19:40.930Z,7.97
2022-08-19T07:22:17.302Z,8.25
2022-08-19T07:24:51.725Z,8.30
2022-08-19T07:27:27.599Z,8.32
2022-08-19T07:30:01.075Z,8.55
2022-08-19T07:32:34.920Z,8.48
2022-08-19T07:35:11.863Z,8.48
2022-08-19T07:37:46.519Z,8.23
2022-08-19T07:40:25.233Z,8.40
2022-08-19T07:43:00.973Z,8.50
2022-08-19T07:45:35.145Z,8.82
2022-08-19T07:48:10.774Z,8.25
2022-08-19T07:50:45.195Z,8.27
2022-08-19T07:53:19.251Z,8.73
2022-08-19T07:55:57.254Z,8.32
2022-08-19T07:58:33.970Z,8.73
2022-08-19T08:01:08.772Z,8.68
2022-08-19T08:03:59.789Z,8.60
2022-08-19T08:06:49.703Z,8.82
2022-08-19T08:09:27.824Z,8.82
2022-08-19T08:12:18.071Z,8.60
2022-08-19T08:15:04.212Z,8.30
2022-08-19T08:17:49.177Z,9.02
2022-08-19T08:20:25.624Z,9.35
2022-08-19T08:23:16.142Z,9.35
2022-08-19T08:25:50.590Z,9.10
2022-08-19T08:28:24.713Z,8.93
2022-08-19T08:31:01.689Z,9.70
2022-08-19T08:33:35.402Z,9.23
2022-08-19T08:36:11.418Z,10.30
2022-08-19T08:38:47.714Z,9.60
2022-08-19T08:41:35.114Z,9.40
2022-08-19T08:44:09.554Z,9.52
2022-08-19T08:46:56.837Z,9.38
2022-08-19T08:49:39.000Z,9.98
2022-08-19T08:52:18.331Z,9.90
2022-08-19T08:54:57.443Z,10.13
2022-08-19T08:57:40.799Z,8.98
2022-08-19T09:00:19.468Z,9.82
2022-08-19T09:02:57.334Z,9.27
2022-08-19T09:05:48.385Z,9.40
2022-08-19T09:08:31.130Z,9.20
2022-08-19T09:11:09.118Z,9.05
2022-08-19T09:13:57.340Z,9.00
2022-08-19T09:16:32.268Z,9.23
2022-08-19T09:19:12.934Z,8.68
2022-08-19T09:21:46.450Z,9.70
2022-08-19T09:24:20.676Z,9.55
2022-08-19T09:26:53.564Z,9.32
2022-08-19T09:29:26.623Z,9.38
2022-08-19T09:32:00.942Z,9.38
2022-08-19T09:34:37.698Z,9.52
2022-08-19T09:37:12.150Z,10.02
2022-08-19T09:39:51.639Z,9.48
2022-08-19T09:42:29.911Z,9.32
2022-08-19T09:45:05.330Z,9.23
2022-08-19T09:47:43.991Z,9.18
2022-08-19T09:50:20.380Z,9.48
2022-08-19T09:52:57.184Z,9.43
2022-08-19T09:55:33.473Z,9.80
2022-08-19T09:58:14.497Z,9.15
2022-08-19T10:00:51.614Z,9.07
2022-08-19T10:03:25.544Z,9.82
2022-08-19T10:06:14.883Z,9.63
2022-08-19T10:08:52.106Z,9.10
2022-08-19T10:11:36.315Z,9.50
2022-08-19T10:14:14.679Z,9.43
2022-08-19T10:16:48.244Z,9.02
2022-08-19T10:19:25.309Z,9.30
2022-08-19T10:22:01.758Z,9.20
2022-08-19T10:24:36.372Z,10.30
2022-08-19T10:27:11.627Z,9.60
2022-08-19T10:29:50.459Z,9.45
2022-08-19T10:32:33.832Z,9.60
2022-08-19T10:35:10.363Z,9.63
2022-08-19T10:37:56.820Z,9.55
2022-08-19T10:40:32.666Z,9.45
2022-08-19T10:43:06.441Z,9.82
2022-08-19T10:45:52.270Z,9.77
2022-08-19T10:48:26.264Z,9.70
2022-08-19T10:51:22.796Z,9.00
2022-08-19T10:53:58.611Z,9.27
2022-08-19T10:56:49.043Z,9.98
2022-08-19T10:59:26.705Z,9.65
2022-08-19T11:02:04.514Z,10.00
2022-08-19T11:04:38.816Z,9.75
2022-08-19T11:07:13.901Z,9.45
2022-08-19T11:09:50.698Z,9.68
2022-08-19T11:12:24.386Z,9.75
2022-08-19T11:14:57.511Z,9.15
2022-08-19T11:17:34.179Z,10.40
2022-08-19T11:20:08.662Z,9.32
2022-08-19T11:22:42.295Z,10.13
2022-08-19T11:25:17.624Z,10.00
2022-08-19T11:27:53.494Z,9.00
2022-08-19T11:30:27.544Z,9.30
2022-08-19T11:33:05.965Z,8.68
2022-08-19T11:35:43.459Z,10.15
2022-08-19T11:38:17.424Z,9.85
2022-08-19T11:41:00.436Z,9.55
2022-08-19T11:43:37.324Z,9.75
2022-08-19T11:46:12.555Z,9.57
2022-08-19T11:48:46.090Z,9.63
2022-08-19T11:51:21.859Z,10.23
2022-08-19T11:53:56.231Z,9.50
2022-08-19T11:56:33.322Z,9.98
2022-08-19T11:59:14.074Z,10.45
2022-08-19T12:01:48.455Z,9.95
2022-08-19T12:04:22.750Z,10.95
2022-08-19T12:06:56.546Z,10.88
2022-08-19T12:09:30.979Z,11.20
2022-08-19T12:12:07.826Z,10.10
2022-08-19T12:14:41.555Z,10.38
2022-08-19T12:17:15.836Z,11.38
2022-08-19T12:19:49.674Z,11.43
2022-08-19T12:22:24.001Z,11.07
2022-08-19T12:24:57.833Z,11.40
2022-08-19T12:27:42.776Z,11.45
2022-08-19T12:30:21.283Z,11.32
2022-08-19T12:32:56.052Z,11.60
2022-08-19T12:35:31.584Z,12.05
2022-08-19T12:38:06.195Z,11.20
2022-08-19T12:40:39.902Z,11.35
2022-08-19T12:43:17.637Z,10.93
2022-08-19T12:45:51.196Z,10.65
2022-08-19T12:48:33.657Z,10.77
2022-08-19T12:51:16.683Z,10.43
2022-08-19T12:53:52.524Z,11.48
2022-08-19T12:56:26.118Z,11.20
2022-08-19T12:59:07.898Z,11.57
2022-08-19T13:01:44.516Z,11.10
2022-08-19T13:04:18.205Z,11.15
2022-08-19T13:06:52.345Z,10.40
2022-08-19T13:09:26.142Z,10.60
2022-08-19T13:12:00.349Z,11.27
2022-08-19T13:14:36.465Z,11.27
2022-08-19T13:17:11.182Z,11.18
2022-08-19T13:19:45.849Z,10.55
2022-08-19T13:22:20.785Z,11.70
2022-08-19T13:24:55.434Z,12.65
2022-08-19T13:27:29.467Z,12.20
2022-08-19T13:30:20.883Z,12.10
2022-08-19T13:33:11.158Z,11.98
2022-08-19T13:35:47.428Z,11.60
2022-08-19T13:38:24.922Z,11.88
2022-08-19T13:41:00.931Z,11.27
2022-08-19T13:43:36.304Z,11.82
2022-08-19T13:46:16.807Z,11.85
2022-08-19T13:48:50.993Z,11.23
2022-08-19T13:51:25.087Z,11.95
2022-08-19T13:53:59.071Z,12.20
2022-08-19T13:56:34.250Z,12.10
2022-08-19T13:59:11.044Z,11.00
2022-08-19T14:01:46.598Z,12.35
2022-08-19T14:04:21.124Z,12.18
2022-08-19T14:06:55.263Z,12.45
2022-08-19T14:09:31.112Z,11.55
2022-08-19T14:12:08.898Z,12.18
2022-08-19T14:14:44.488Z,12.00
2022-08-19T14:17:21.999Z,12.68
2022-08-19T14:20:10.377Z,12.25
2022-08-19T14:22:46.980Z,12.30
2022-08-19T14:25:21.964Z,12.43
2022-08-19T14:27:56.688Z,12.52
2022-08-19T14:30:35.271Z,11.95
2022-08-19T14:33:20.073Z,12.18
2022-08-19T14:35:59.778Z,12.45
2022-08-19T14:38:34.509Z,12.20
2022-08-19T14:41:21.607Z,12.38
2022-08-19T14:43:57.571Z,11.98
2022-08-19T14:46:36.253Z,12.40
2022-08-19T14:49:14.925Z,11.85
2022-08-19T14:51:50.865Z,11.77
2022-08-19T14:54:26.821Z,12.20
2022-08-19T14:57:05.131Z,11.95
2022-08-19T14:59:40.918Z,11.68
2022-08-19T15:02:33.798Z,11.82
2022-08-19T15:05:11.496Z,12.43
2022-08-19T15:07:47.016Z,12.25
2022-08-19T15:10:24.020Z,11.93
2022-08-19T15:13:13.826Z,12.40
2022-08-19T15:15:50.705Z,12.35
2022-08-19T15:18:34.052Z,11.90
2022-08-19T15:21:10.588Z,12.25
2022-08-19T15:23:46.202Z,12.07
2022-08-19T15:26:24.605Z,13.20
2022-08-19T15:28:59.499Z,13.23
2022-08-19T15:31:44.393Z,12.40
2022-08-19T15:34:22.933Z,12.25
2022-08-19T15:37:01.176Z,11.85
2022-08-19T15:39:36.100Z,12.40
2022-08-19T15:42:11.713Z,11.63
2022-08-19T15:45:02.790Z,12.63
2022-08-19T15:47:37.333Z,12.48
2022-08-19T15:50:16.035Z,13.32
2022-08-19T15:52:57.649Z,13.13
2022-08-19T15:55:34.828Z,14.10
2022-08-19T15:58:29.059Z,14.65
2022-08-19T16:01:20.659Z,14.32
2022-08-19T16:04:14.717Z,16.55
2022-08-19T16:06:52.137Z,16.20
2022-08-19T16:09:38.978Z,15.43
2022-08-19T16:12:13.563Z,15.93
2022-08-19T16:14:51.448Z,16.52
2022-08-19T16:17:26.105Z,19.63
2022-08-19T16:20:00.511Z,18.83
2022-08-19T16:22:36.187Z,19.10
2022-08-19T16:25:16.024Z,17.67
2022-08-19T16:27:56.252Z,17.67
2022-08-19T16:30:48.510Z,17.15
2022-08-19T16:33:26.183Z,17.60
2022-08-19T16:36:07.204Z,17.33
2022-08-19T16:38:47.800Z,16.95
2022-08-19T16:41:25.790Z,18.77
2022-08-19T16:44:00.120Z,18.80
2022-08-19T16:46:36.383Z,16.65
2022-08-19T16:49:10.925Z,17.10
2022-08-19T16:51:46.809Z,17.98
2022-08-19T16:54:21.859Z,19.80
2022-08-19T16:56:57.395Z,16.77
2022-08-19T16:59:31.571Z,17.58
2022-08-19T17:02:06.583Z,16.17
2022-08-19T17:04:55.708Z,17.40
2022-08-19T17:07:35.174Z,15.77
2022-08-19T17:10:11.717Z,15.77
2022-08-19T17:12:48.444Z,15.00
2022-08-19T17:15:24.726Z,17.05
2022-08-19T17:18:03.259Z,16.58
2022-08-19T17:20:38.490Z,15.55
2022-08-19T17:23:14.571Z,15.65
2022-08-19T17:25:49.251Z,14.88
2022-08-19T17:28:27.464Z,14.88
2022-08-19T17:31:03.595Z,13.38
2022-08-19T17:33:41.085Z,14.73
2022-08-19T17:36:16.276Z,14.15
2022-08-19T17:38:50.017Z,15.13
2022-08-19T17:41:24.465Z,14.63
2022-08-19T17:44:00.871Z,14.70
2022-08-19T17:46:35.458Z,15.10
2022-08-19T17:49:09.073Z,15.52
2022-08-19T17:51:50.939Z,15.57
2022-08-19T17:54:25.407Z,16.63
2022-08-19T17:57:07.581Z,16.92
2022-08-19T17:59:43.357Z,16.75
2022-08-19T18:02:20.656Z,16.95
2022-08-19T18:04:55.494Z,16.92
2022-08-19T18:07:29.437Z,17.05
2022-08-19T18:10:03.621Z,17.40
2022-08-19T18:12:38.322Z,17.20
2022-08-19T18:15:14.937Z,17.35
2022-08-19T18:17:50.790Z,17.42
2022-08-19T18:20:24.896Z,16.05
2022-08-19T18:22:58.875Z,16.25
2022-08-19T18:25:53.552Z,17.05
2022-08-19T18:28:28.014Z,16.27
2022-08-19T18:31:03.725Z,16.13
2022-08-19T18:33:43.974Z,15.40
2022-08-19T18:36:32.078Z,16.58
2022-08-19T18:39:29.351Z,15.52
2022-08-19T18:42:19.522Z,15.75
2022-08-19T18:45:08.651Z,16.33
2022-08-19T18:48:00.250Z,16.00
2022-08-19T18:50:34.596Z,15.65
2022-08-19T18:53:07.847Z,16.27
2022-08-19T18:55:41.627Z,16.42
2022-08-19T18:58:15.555Z,16.33
2022-08-19T19:00:49.595Z,16.98
2022-08-19T19:03:25.969Z,16.40
2022-08-19T19:06:00.139Z,16.13
2022-08-19T19:08:33.571Z,15.80
2022-08-19T19:11:07.523Z,16.00
2022-08-19T19:13:42.991Z,16.92
2022-08-19T19:16:17.296Z,17.20
2022-08-19T19:18:53.841Z,16.63
2022-08-19T19:21:31.925Z,16.60
2022-08-19T19:24:10.224Z,16.35
2022-08-19T19:26:47.440Z,16.48
2022-08-19T19:29:25.481Z,16.95
2022-08-19T19:32:00.936Z,16.52
2022-08-19T19:34:36.338Z,16.30
2022-08-19T19:37:10.206Z,16.27
2022-08-19T19:39:46.184Z,16.83
2022-08-19T19:42:22.960Z,16.92
2022-08-19T19:44:58.364Z,17.40
2022-08-19T19:47:33.480Z,16.90
2022-08-19T19:50:14.895Z,17.00
2022-08-19T19:52:50.905Z,17.08
2022-08-19T19:55:27.626Z,17.48
2022-08-19T19:58:02.123Z,16.92
2022-08-19T20:00:35.401Z,16.85
2022-08-19T20:03:09.322Z,18.55
2022-08-19T20:05:44.730Z,17.73
2022-08-19T20:08:34.735Z,18.02
2022-08-19T20:11:11.040Z,18.27
2022-08-19T20:13:45.767Z,18.75
2022-08-19T20:16:19.761Z,18.55
2022-08-19T20:18:53.287Z,19.58
2022-08-19T20:21:35.460Z,18.17
2022-08-19T20:24:10.356Z,17.60
2022-08-19T20:26:43.759Z,18.45
2022-08-19T20:29:38.749Z,19.55
2022-08-19T20:32:15.254Z,17.98
2022-08-19T20:34:51.500Z,18.40
2022-08-19T20:37:26.928Z,18.20
2022-08-19T20:40:00.453Z,18.10
2022-08-19T20:42:34.587Z,19.02
2022-08-19T20:45:19.713Z,18.30
2022-08-19T20:48:03.976Z,17.08
2022-08-19T20:50:46.651Z,17.83
2022-08-19T20:53:24.719Z,18.38
2022-08-19T20:55:59.818Z,18.58
2022-08-19T20:58:33.470Z,17.92
2022-08-19T21:01:11.374Z,18.20
2022-08-19T21:03:46.579Z,18.55
2022-08-19T21:06:20.468Z,18.65
2022-08-19T21:08:58.737Z,18.75
2022-08-19T21:11:33.388Z,18.35
2022-08-19T21:14:07.403Z,18.67
2022-08-19T21:16:41.130Z,18.88
2022-08-19T21:19:15.229Z,18.92
2022-08-19T21:21:48.105Z,18.67
2022-08-19T21:24:30.120Z,18.67
2022-08-19T21:27:05.005Z,19.42
2022-08-19T21:29:41.893Z,18.60
2022-08-19T21:32:16.907Z,19.50
2022-08-19T21:34:52.259Z,17.88
2022-08-19T21:37:26.268Z,18.00
2022-08-19T21:40:01.889Z,18.23
2022-08-19T21:42:35.824Z,18.77
2022-08-19T21:45:09.377Z,19.08
2022-08-19T21:47:43.617Z,18.42
2022-08-19T21:50:17.212Z,17.90
2022-08-19T21:52:50.753Z,19.15
2022-08-19T21:55:26.818Z,18.63
2022-08-19T21:58:01.825Z,18.52
2022-08-19T22:00:36.752Z,19.02
2022-08-19T22:03:10.540Z,18.67
2022-08-19T22:05:44.748Z,17.55
2022-08-19T22:08:18.421Z,17.85
2022-08-19T22:10:54.158Z,18.50
2022-08-19T22:13:28.116Z,18.73
2022-08-19T22:16:01.550Z,18.65
2022-08-19T22:18:36.097Z,18.58
2022-08-19T22:21:12.207Z,18.80
2022-08-19T22:23:49.070Z,18.08
2022-08-19T22:26:24.686Z,16.80
2022-08-19T22:28:59.349Z,18.20
2022-08-19T22:31:35.193Z,17.63
2022-08-19T22:34:10.833Z,17.42
2022-08-19T22:36:44.679Z,19.10
2022-08-19T22:39:18.114Z,18.50
2022-08-19T22:41:54.337Z,18.15
2022-08-19T22:44:27.677Z,17.33
2022-08-19T22:47:01.637Z,17.85
2022-08-19T22:49:35.396Z,17.85
2022-08-19T22:52:21.760Z,18.63
2022-08-19T22:54:57.186Z,18.25
2022-08-19T22:57:32.685Z,19.23
2022-08-19T23:00:06.358Z,18.83
2022-08-19T23:02:51.943Z,18.58
2022-08-19T23:05:29.044Z,18.20
2022-08-19T23:08:02.948Z,16.83
2022-08-19T23:10:36.576Z,17.13
2022-08-19T23:13:13.042Z,16.88
2022-08-19T23:15:47.239Z,17.13
2022-08-19T23:18:22.422Z,17.05
2022-08-19T23:20:55.780Z,16.58
2022-08-19T23:23:30.371Z,16.98
2022-08-19T23:26:04.652Z,17.13
2022-08-19T23:29:02.165Z,16.27
2022-08-19T23:31:37.452Z,16.80
2022-08-19T23:34:11.771Z,15.90
2022-08-19T23:36:45.295Z,16.67
2022-08-19T23:39:18.949Z,16.80
2022-08-19T23:41:52.713Z,16.52
2022-08-19T23:44:28.730Z,16.45
2022-08-19T23:47:04.747Z,16.55
2022-08-19T23:49:40.944Z,16.10
2022-08-19T23:52:14.634Z,16.25
2022-08-19T23:54:48.110Z,16.00
2022-08-19T23:57:21.727Z,14.73
2022-08-19T23:59:57.581Z,14.88
